sensor_id;sensor_type;location;lat;lon;timestamp;P1;durP1;ratioP1;P2;durP2;ratioP2
5722;SDS011;2886;49.722;8.612;2023-04-06T00:02:04;5.50;;;3.80;;
5722;SDS011;2886;49.722;8.612;2023-04-06T00:04:30;6.93;;;3.90;;
5722;SDS011;2886;49.722;8.612;2023-04-06T00:06:56;5.23;;;3.87;;
5722;SDS011;2886;49.722;8.612;2023-04-06T00:09:21;4.83;;;3.43;;
5722;SDS011;2886;49.722;8.612;2023-04-06T00:11:47;21.67;;;7.23;;
5722;SDS011;2886;49.722;8.612;2023-04-06T00:14:13;16.00;;;7.10;;
5722;SDS011;2886;49.722;8.612;2023-04-06T00:16:39;8.80;;;5.37;;
5722;SDS011;2886;49.722;8.612;2023-04-06T00:19:04;18.23;;;6.70;;
5722;SDS011;2886;49.722;8.612;2023-04-06T00:21:30;12.70;;;4.60;;
5722;SDS011;2886;49.722;8.612;2023-04-06T00:23:56;6.47;;;4.60;;
5722;SDS011;2886;49.722;8.612;2023-04-06T00:26:21;8.20;;;4.60;;
5722;SDS011;2886;49.722;8.612;2023-04-06T00:28:47;37.67;;;11.50;;
5722;SDS011;2886;49.722;8.612;2023-04-06T00:31:15;20.47;;;8.90;;
5722;SDS011;2886;49.722;8.612;2023-04-06T00:33:40;19.27;;;8.60;;
5722;SDS011;2886;49.722;8.612;2023-04-06T00:36:06;9.50;;;5.13;;
5722;SDS011;2886;49.722;8.612;2023-04-06T00:38:32;7.63;;;4.60;;
5722;SDS011;2886;49.722;8.612;2023-04-06T00:40:57;11.83;;;5.57;;
5722;SDS011;2886;49.722;8.612;2023-04-06T00:43:23;10.63;;;4.73;;
5722;SDS011;2886;49.722;8.612;2023-04-06T00:45:49;8.33;;;5.00;;
5722;SDS011;2886;49.722;8.612;2023-04-06T00:48:15;5.67;;;4.07;;
5722;SDS011;2886;49.722;8.612;2023-04-06T00:50:41;7.23;;;3.90;;
5722;SDS011;2886;49.722;8.612;2023-04-06T00:53:07;9.67;;;4.60;;
5722;SDS011;2886;49.722;8.612;2023-04-06T00:55:33;8.50;;;5.03;;
5722;SDS011;2886;49.722;8.612;2023-04-06T00:58:00;5.93;;;4.17;;
5722;SDS011;2886;49.722;8.612;2023-04-06T01:00:26;7.10;;;4.20;;
5722;SDS011;2886;49.722;8.612;2023-04-06T01:02:52;5.40;;;3.87;;
5722;SDS011;2886;49.722;8.612;2023-04-06T01:05:18;7.87;;;4.57;;
5722;SDS011;2886;49.722;8.612;2023-04-06T01:07:44;9.90;;;4.47;;
5722;SDS011;2886;49.722;8.612;2023-04-06T01:10:10;6.30;;;4.13;;
5722;SDS011;2886;49.722;8.612;2023-04-06T01:12:36;9.90;;;4.53;;
5722;SDS011;2886;49.722;8.612;2023-04-06T01:15:03;6.00;;;4.00;;
5722;SDS011;2886;49.722;8.612;2023-04-06T01:17:31;6.07;;;3.97;;
5722;SDS011;2886;49.722;8.612;2023-04-06T01:19:56;5.30;;;4.00;;
5722;SDS011;2886;49.722;8.612;2023-04-06T01:22:23;5.70;;;4.07;;
5722;SDS011;2886;49.722;8.612;2023-04-06T01:24:49;5.03;;;3.70;;
5722;SDS011;2886;49.722;8.612;2023-04-06T01:27:15;5.20;;;3.50;;
5722;SDS011;2886;49.722;8.612;2023-04-06T01:29:40;6.97;;;3.70;;
5722;SDS011;2886;49.722;8.612;2023-04-06T01:32:06;7.43;;;3.27;;
5722;SDS011;2886;49.722;8.612;2023-04-06T01:34:32;7.50;;;3.23;;
5722;SDS011;2886;49.722;8.612;2023-04-06T01:36:58;9.10;;;4.50;;
5722;SDS011;2886;49.722;8.612;2023-04-06T01:39:24;10.23;;;4.70;;
5722;SDS011;2886;49.722;8.612;2023-04-06T01:41:50;5.80;;;4.20;;
5722;SDS011;2886;49.722;8.612;2023-04-06T01:44:16;4.90;;;3.33;;
5722;SDS011;2886;49.722;8.612;2023-04-06T01:46:43;5.70;;;3.97;;
5722;SDS011;2886;49.722;8.612;2023-04-06T01:49:10;5.70;;;3.50;;
5722;SDS011;2886;49.722;8.612;2023-04-06T01:51:36;9.40;;;4.70;;
5722;SDS011;2886;49.722;8.612;2023-04-06T01:54:01;7.00;;;4.10;;
5722;SDS011;2886;49.722;8.612;2023-04-06T01:56:27;11.10;;;3.70;;
5722;SDS011;2886;49.722;8.612;2023-04-06T01:58:53;5.50;;;3.57;;
5722;SDS011;2886;49.722;8.612;2023-04-06T02:01:18;4.70;;;3.50;;
5722;SDS011;2886;49.722;8.612;2023-04-06T02:03:46;5.53;;;3.50;;
5722;SDS011;2886;49.722;8.612;2023-04-06T02:06:12;3.87;;;3.47;;
5722;SDS011;2886;49.722;8.612;2023-04-06T02:08:38;5.77;;;3.80;;
5722;SDS011;2886;49.722;8.612;2023-04-06T02:11:03;12.63;;;3.50;;
5722;SDS011;2886;49.722;8.612;2023-04-06T02:13:29;9.70;;;4.90;;
5722;SDS011;2886;49.722;8.612;2023-04-06T02:15:55;7.63;;;4.20;;
5722;SDS011;2886;49.722;8.612;2023-04-06T02:18:22;4.47;;;3.70;;
5722;SDS011;2886;49.722;8.612;2023-04-06T02:20:47;6.70;;;4.20;;
5722;SDS011;2886;49.722;8.612;2023-04-06T02:23:13;11.80;;;3.87;;
5722;SDS011;2886;49.722;8.612;2023-04-06T02:25:39;6.47;;;3.83;;
5722;SDS011;2886;49.722;8.612;2023-04-06T02:28:06;5.60;;;3.60;;
5722;SDS011;2886;49.722;8.612;2023-04-06T02:30:31;5.73;;;3.57;;
5722;SDS011;2886;49.722;8.612;2023-04-06T02:32:58;4.23;;;3.37;;
5722;SDS011;2886;49.722;8.612;2023-04-06T02:35:28;4.80;;;3.43;;
5722;SDS011;2886;49.722;8.612;2023-04-06T02:37:55;9.27;;;3.90;;
5722;SDS011;2886;49.722;8.612;2023-04-06T02:40:20;6.47;;;3.93;;
5722;SDS011;2886;49.722;8.612;2023-04-06T02:42:47;5.40;;;3.90;;
5722;SDS011;2886;49.722;8.612;2023-04-06T02:45:13;8.77;;;3.40;;
5722;SDS011;2886;49.722;8.612;2023-04-06T02:47:41;4.03;;;3.30;;
5722;SDS011;2886;49.722;8.612;2023-04-06T02:50:07;7.07;;;4.13;;
5722;SDS011;2886;49.722;8.612;2023-04-06T02:52:32;4.63;;;3.60;;
5722;SDS011;2886;49.722;8.612;2023-04-06T02:54:58;4.77;;;4.07;;
5722;SDS011;2886;49.722;8.612;2023-04-06T02:57:25;5.00;;;3.90;;
5722;SDS011;2886;49.722;8.612;2023-04-06T02:59:51;7.30;;;4.20;;
5722;SDS011;2886;49.722;8.612;2023-04-06T03:02:16;8.43;;;4.87;;
5722;SDS011;2886;49.722;8.612;2023-04-06T03:04:42;5.60;;;4.00;;
5722;SDS011;2886;49.722;8.612;2023-04-06T03:07:09;5.90;;;3.87;;
5722;SDS011;2886;49.722;8.612;2023-04-06T03:09:36;6.10;;;4.30;;
5722;SDS011;2886;49.722;8.612;2023-04-06T03:12:03;6.23;;;4.30;;
5722;SDS011;2886;49.722;8.612;2023-04-06T03:14:29;10.30;;;4.13;;
5722;SDS011;2886;49.722;8.612;2023-04-06T03:16:55;5.97;;;4.33;;
5722;SDS011;2886;49.722;8.612;2023-04-06T03:19:20;5.47;;;4.30;;
5722;SDS011;2886;49.722;8.612;2023-04-06T03:21:46;6.70;;;4.23;;
5722;SDS011;2886;49.722;8.612;2023-04-06T03:24:12;5.70;;;3.87;;
5722;SDS011;2886;49.722;8.612;2023-04-06T03:26:38;6.23;;;4.20;;
5722;SDS011;2886;49.722;8.612;2023-04-06T03:29:04;5.83;;;4.40;;
5722;SDS011;2886;49.722;8.612;2023-04-06T03:31:30;5.17;;;3.73;;
5722;SDS011;2886;49.722;8.612;2023-04-06T03:33:56;7.13;;;3.80;;
5722;SDS011;2886;49.722;8.612;2023-04-06T03:36:22;7.43;;;4.30;;
5722;SDS011;2886;49.722;8.612;2023-04-06T03:38:48;7.83;;;4.40;;
5722;SDS011;2886;49.722;8.612;2023-04-06T03:41:30;7.00;;;4.10;;
5722;SDS011;2886;49.722;8.612;2023-04-06T03:43:56;5.20;;;3.53;;
5722;SDS011;2886;49.722;8.612;2023-04-06T03:46:22;8.87;;;5.17;;
5722;SDS011;2886;49.722;8.612;2023-04-06T03:48:47;6.43;;;5.00;;
5722;SDS011;2886;49.722;8.612;2023-04-06T03:51:14;6.73;;;4.20;;
5722;SDS011;2886;49.722;8.612;2023-04-06T03:53:40;8.20;;;3.90;;
5722;SDS011;2886;49.722;8.612;2023-04-06T03:56:06;7.40;;;4.53;;
5722;SDS011;2886;49.722;8.612;2023-04-06T03:58:32;6.87;;;4.93;;
5722;SDS011;2886;49.722;8.612;2023-04-06T04:01:00;6.80;;;4.50;;
5722;SDS011;2886;49.722;8.612;2023-04-06T04:03:26;7.90;;;4.80;;
5722;SDS011;2886;49.722;8.612;2023-04-06T04:05:53;4.50;;;3.40;;
5722;SDS011;2886;49.722;8.612;2023-04-06T04:08:20;7.97;;;4.40;;
5722;SDS011;2886;49.722;8.612;2023-04-06T04:10:46;10.90;;;4.50;;
5722;SDS011;2886;49.722;8.612;2023-04-06T04:13:12;4.03;;;3.60;;
5722;SDS011;2886;49.722;8.612;2023-04-06T04:15:37;4.43;;;3.80;;
5722;SDS011;2886;49.722;8.612;2023-04-06T04:18:03;5.80;;;4.20;;
5722;SDS011;2886;49.722;8.612;2023-04-06T04:20:28;9.83;;;4.20;;
5722;SDS011;2886;49.722;8.612;2023-04-06T04:22:54;8.37;;;4.47;;
5722;SDS011;2886;49.722;8.612;2023-04-06T04:25:20;8.97;;;5.00;;
5722;SDS011;2886;49.722;8.612;2023-04-06T04:27:45;7.90;;;4.90;;
5722;SDS011;2886;49.722;8.612;2023-04-06T04:30:11;41.87;;;14.13;;
5722;SDS011;2886;49.722;8.612;2023-04-06T04:32:37;26.73;;;8.60;;
5722;SDS011;2886;49.722;8.612;2023-04-06T04:35:02;23.20;;;9.70;;
5722;SDS011;2886;49.722;8.612;2023-04-06T04:37:28;41.43;;;13.37;;
5722;SDS011;2886;49.722;8.612;2023-04-06T04:39:54;27.03;;;9.77;;
5722;SDS011;2886;49.722;8.612;2023-04-06T04:42:19;27.83;;;8.93;;
5722;SDS011;2886;49.722;8.612;2023-04-06T04:44:45;47.70;;;13.53;;
5722;SDS011;2886;49.722;8.612;2023-04-06T04:47:11;13.50;;;5.77;;
5722;SDS011;2886;49.722;8.612;2023-04-06T04:49:36;12.90;;;6.33;;
5722;SDS011;2886;49.722;8.612;2023-04-06T04:52:02;12.00;;;5.30;;
5722;SDS011;2886;49.722;8.612;2023-04-06T04:54:27;6.67;;;4.57;;
5722;SDS011;2886;49.722;8.612;2023-04-06T04:56:53;10.67;;;4.80;;
5722;SDS011;2886;49.722;8.612;2023-04-06T04:59:19;6.60;;;4.60;;
5722;SDS011;2886;49.722;8.612;2023-04-06T05:01:44;5.00;;;4.00;;
5722;SDS011;2886;49.722;8.612;2023-04-06T05:04:10;39.43;;;11.43;;
5722;SDS011;2886;49.722;8.612;2023-04-06T05:06:36;24.93;;;9.07;;
5722;SDS011;2886;49.722;8.612;2023-04-06T05:09:01;23.03;;;8.20;;
5722;SDS011;2886;49.722;8.612;2023-04-06T05:11:27;15.73;;;7.40;;
5722;SDS011;2886;49.722;8.612;2023-04-06T05:13:53;13.37;;;6.47;;
5722;SDS011;2886;49.722;8.612;2023-04-06T05:16:18;16.20;;;6.93;;
5722;SDS011;2886;49.722;8.612;2023-04-06T05:18:44;9.80;;;5.90;;
5722;SDS011;2886;49.722;8.612;2023-04-06T05:21:10;10.73;;;5.60;;
5722;SDS011;2886;49.722;8.612;2023-04-06T05:23:36;8.57;;;5.17;;
5722;SDS011;2886;49.722;8.612;2023-04-06T05:26:02;8.43;;;5.80;;
5722;SDS011;2886;49.722;8.612;2023-04-06T05:28:34;8.17;;;5.53;;
5722;SDS011;2886;49.722;8.612;2023-04-06T05:31:00;9.50;;;5.70;;
5722;SDS011;2886;49.722;8.612;2023-04-06T05:33:26;9.33;;;6.90;;
5722;SDS011;2886;49.722;8.612;2023-04-06T05:35:52;8.90;;;5.77;;
5722;SDS011;2886;49.722;8.612;2023-04-06T05:38:18;13.93;;;6.83;;
5722;SDS011;2886;49.722;8.612;2023-04-06T05:40:43;12.10;;;6.13;;
5722;SDS011;2886;49.722;8.612;2023-04-06T05:43:09;11.77;;;6.10;;
5722;SDS011;2886;49.722;8.612;2023-04-06T05:45:35;6.77;;;5.30;;
5722;SDS011;2886;49.722;8.612;2023-04-06T05:48:01;10.63;;;5.83;;
5722;SDS011;2886;49.722;8.612;2023-04-06T05:50:27;9.50;;;5.33;;
5722;SDS011;2886;49.722;8.612;2023-04-06T05:52:53;9.97;;;5.93;;
5722;SDS011;2886;49.722;8.612;2023-04-06T05:55:19;9.83;;;5.80;;
5722;SDS011;2886;49.722;8.612;2023-04-06T05:57:45;16.73;;;6.20;;
5722;SDS011;2886;49.722;8.612;2023-04-06T06:00:10;9.90;;;5.70;;
5722;SDS011;2886;49.722;8.612;2023-04-06T06:02:37;12.40;;;5.70;;
5722;SDS011;2886;49.722;8.612;2023-04-06T06:05:02;7.70;;;5.70;;
5722;SDS011;2886;49.722;8.612;2023-04-06T06:07:28;12.20;;;6.00;;
5722;SDS011;2886;49.722;8.612;2023-04-06T06:09:57;10.37;;;5.80;;
5722;SDS011;2886;49.722;8.612;2023-04-06T06:12:23;10.00;;;6.20;;
5722;SDS011;2886;49.722;8.612;2023-04-06T06:14:49;8.43;;;5.30;;
5722;SDS011;2886;49.722;8.612;2023-04-06T06:17:14;13.63;;;5.73;;
5722;SDS011;2886;49.722;8.612;2023-04-06T06:19:40;9.50;;;5.20;;
5722;SDS011;2886;49.722;8.612;2023-04-06T06:22:06;13.07;;;5.10;;
5722;SDS011;2886;49.722;8.612;2023-04-06T06:24:31;7.10;;;5.20;;
5722;SDS011;2886;49.722;8.612;2023-04-06T06:26:58;9.97;;;6.03;;
5722;SDS011;2886;49.722;8.612;2023-04-06T06:29:23;14.87;;;6.40;;
5722;SDS011;2886;49.722;8.612;2023-04-06T06:31:49;20.73;;;7.90;;
5722;SDS011;2886;49.722;8.612;2023-04-06T06:34:15;16.03;;;8.20;;
5722;SDS011;2886;49.722;8.612;2023-04-06T06:36:40;13.67;;;7.47;;
5722;SDS011;2886;49.722;8.612;2023-04-06T06:39:06;11.73;;;7.03;;
5722;SDS011;2886;49.722;8.612;2023-04-06T06:41:32;18.77;;;7.13;;
5722;SDS011;2886;49.722;8.612;2023-04-06T06:43:57;11.20;;;7.37;;
5722;SDS011;2886;49.722;8.612;2023-04-06T06:46:23;15.50;;;6.93;;
5722;SDS011;2886;49.722;8.612;2023-04-06T06:48:49;12.97;;;7.23;;
5722;SDS011;2886;49.722;8.612;2023-04-06T06:51:14;12.80;;;6.67;;
5722;SDS011;2886;49.722;8.612;2023-04-06T06:53:40;16.60;;;7.00;;
5722;SDS011;2886;49.722;8.612;2023-04-06T06:56:06;12.17;;;7.10;;
5722;SDS011;2886;49.722;8.612;2023-04-06T06:58:31;9.63;;;6.03;;
5722;SDS011;2886;49.722;8.612;2023-04-06T07:00:58;10.60;;;6.10;;
5722;SDS011;2886;49.722;8.612;2023-04-06T07:03:24;10.70;;;5.90;;
5722;SDS011;2886;49.722;8.612;2023-04-06T07:05:50;9.70;;;5.97;;
5722;SDS011;2886;49.722;8.612;2023-04-06T07:08:19;8.60;;;5.73;;
5722;SDS011;2886;49.722;8.612;2023-04-06T07:10:45;10.80;;;6.03;;
5722;SDS011;2886;49.722;8.612;2023-04-06T07:13:11;19.10;;;6.67;;
5722;SDS011;2886;49.722;8.612;2023-04-06T07:15:37;10.67;;;5.80;;
5722;SDS011;2886;49.722;8.612;2023-04-06T07:18:02;9.13;;;5.60;;
5722;SDS011;2886;49.722;8.612;2023-04-06T07:20:28;10.80;;;5.97;;
5722;SDS011;2886;49.722;8.612;2023-04-06T07:22:54;11.13;;;6.00;;
5722;SDS011;2886;49.722;8.612;2023-04-06T07:25:20;10.83;;;6.43;;
5722;SDS011;2886;49.722;8.612;2023-04-06T07:27:45;9.60;;;5.93;;
5722;SDS011;2886;49.722;8.612;2023-04-06T07:30:12;10.70;;;6.00;;
5722;SDS011;2886;49.722;8.612;2023-04-06T07:32:38;10.90;;;6.50;;
5722;SDS011;2886;49.722;8.612;2023-04-06T07:35:04;12.97;;;6.17;;
5722;SDS011;2886;49.722;8.612;2023-04-06T07:37:30;15.40;;;6.60;;
5722;SDS011;2886;49.722;8.612;2023-04-06T07:39:56;10.57;;;5.93;;
5722;SDS011;2886;49.722;8.612;2023-04-06T07:42:22;9.57;;;6.47;;
5722;SDS011;2886;49.722;8.612;2023-04-06T07:44:47;10.40;;;6.40;;
5722;SDS011;2886;49.722;8.612;2023-04-06T07:47:13;12.93;;;6.37;;
5722;SDS011;2886;49.722;8.612;2023-04-06T07:49:39;12.80;;;7.40;;
5722;SDS011;2886;49.722;8.612;2023-04-06T07:52:05;15.10;;;5.97;;
5722;SDS011;2886;49.722;8.612;2023-04-06T07:54:30;8.43;;;6.10;;
5722;SDS011;2886;49.722;8.612;2023-04-06T07:56:56;11.17;;;6.13;;
5722;SDS011;2886;49.722;8.612;2023-04-06T07:59:21;11.53;;;6.23;;
5722;SDS011;2886;49.722;8.612;2023-04-06T08:01:47;11.50;;;6.90;;
5722;SDS011;2886;49.722;8.612;2023-04-06T08:04:13;10.93;;;5.83;;
5722;SDS011;2886;49.722;8.612;2023-04-06T08:06:39;10.47;;;6.53;;
5722;SDS011;2886;49.722;8.612;2023-04-06T08:09:05;10.30;;;6.20;;
5722;SDS011;2886;49.722;8.612;2023-04-06T08:11:31;10.20;;;6.27;;
5722;SDS011;2886;49.722;8.612;2023-04-06T08:13:57;12.83;;;6.57;;
5722;SDS011;2886;49.722;8.612;2023-04-06T08:16:23;10.80;;;6.83;;
5722;SDS011;2886;49.722;8.612;2023-04-06T08:18:49;12.23;;;6.80;;
5722;SDS011;2886;49.722;8.612;2023-04-06T08:21:14;17.60;;;7.63;;
5722;SDS011;2886;49.722;8.612;2023-04-06T08:23:40;11.03;;;7.00;;
5722;SDS011;2886;49.722;8.612;2023-04-06T08:26:06;9.93;;;6.60;;
5722;SDS011;2886;49.722;8.612;2023-04-06T08:28:32;11.77;;;7.00;;
5722;SDS011;2886;49.722;8.612;2023-04-06T08:31:02;12.30;;;6.70;;
5722;SDS011;2886;49.722;8.612;2023-04-06T08:33:31;9.90;;;6.47;;
5722;SDS011;2886;49.722;8.612;2023-04-06T08:35:57;12.53;;;7.10;;
5722;SDS011;2886;49.722;8.612;2023-04-06T08:38:22;9.90;;;6.13;;
5722;SDS011;2886;49.722;8.612;2023-04-06T08:40:48;10.30;;;6.90;;
5722;SDS011;2886;49.722;8.612;2023-04-06T08:43:16;10.53;;;6.10;;
5722;SDS011;2886;49.722;8.612;2023-04-06T08:45:43;10.23;;;6.87;;
5722;SDS011;2886;49.722;8.612;2023-04-06T08:48:09;11.40;;;6.43;;
5722;SDS011;2886;49.722;8.612;2023-04-06T08:50:37;9.77;;;6.60;;
5722;SDS011;2886;49.722;8.612;2023-04-06T08:53:03;12.13;;;6.87;;
5722;SDS011;2886;49.722;8.612;2023-04-06T08:55:31;10.47;;;7.20;;
5722;SDS011;2886;49.722;8.612;2023-04-06T08:57:57;13.47;;;7.30;;
5722;SDS011;2886;49.722;8.612;2023-04-06T09:00:24;12.43;;;7.30;;
5722;SDS011;2886;49.722;8.612;2023-04-06T09:02:51;14.07;;;6.90;;
5722;SDS011;2886;49.722;8.612;2023-04-06T09:05:20;14.70;;;7.33;;
5722;SDS011;2886;49.722;8.612;2023-04-06T09:07:46;14.23;;;7.10;;
5722;SDS011;2886;49.722;8.612;2023-04-06T09:10:12;10.73;;;6.63;;
5722;SDS011;2886;49.722;8.612;2023-04-06T09:12:38;14.83;;;7.60;;
5722;SDS011;2886;49.722;8.612;2023-04-06T09:15:03;14.50;;;7.10;;
5722;SDS011;2886;49.722;8.612;2023-04-06T09:17:30;18.73;;;7.60;;
5722;SDS011;2886;49.722;8.612;2023-04-06T09:19:59;11.77;;;8.37;;
5722;SDS011;2886;49.722;8.612;2023-04-06T09:22:25;12.33;;;7.30;;
5722;SDS011;2886;49.722;8.612;2023-04-06T09:25:00;11.57;;;6.97;;
5722;SDS011;2886;49.722;8.612;2023-04-06T09:27:32;12.30;;;7.60;;
5722;SDS011;2886;49.722;8.612;2023-04-06T09:30:05;16.67;;;7.03;;
5722;SDS011;2886;49.722;8.612;2023-04-06T09:32:54;16.77;;;7.60;;
5722;SDS011;2886;49.722;8.612;2023-04-06T09:35:21;14.03;;;7.50;;
5722;SDS011;2886;49.722;8.612;2023-04-06T09:37:51;12.03;;;7.63;;
5722;SDS011;2886;49.722;8.612;2023-04-06T09:40:17;12.80;;;6.97;;
5722;SDS011;2886;49.722;8.612;2023-04-06T09:42:46;11.63;;;6.77;;
5722;SDS011;2886;49.722;8.612;2023-04-06T09:45:13;15.90;;;8.20;;
5722;SDS011;2886;49.722;8.612;2023-04-06T09:47:40;9.87;;;6.60;;
5722;SDS011;2886;49.722;8.612;2023-04-06T09:50:08;12.50;;;7.70;;
5722;SDS011;2886;49.722;8.612;2023-04-06T09:52:48;13.17;;;6.80;;
5722;SDS011;2886;49.722;8.612;2023-04-06T09:55:23;10.43;;;6.40;;
5722;SDS011;2886;49.722;8.612;2023-04-06T09:57:58;12.67;;;7.50;;
5722;SDS011;2886;49.722;8.612;2023-04-06T10:00:29;12.97;;;7.77;;
5722;SDS011;2886;49.722;8.612;2023-04-06T10:05:57;10.13;;;6.07;;
5722;SDS011;2886;49.722;8.612;2023-04-06T10:08:28;11.53;;;6.57;;
5722;SDS011;2886;49.722;8.612;2023-04-06T10:10:55;12.37;;;7.40;;
5722;SDS011;2886;49.722;8.612;2023-04-06T10:13:21;12.13;;;7.83;;
5722;SDS011;2886;49.722;8.612;2023-04-06T10:15:49;10.70;;;7.17;;
5722;SDS011;2886;49.722;8.612;2023-04-06T10:18:16;13.93;;;7.60;;
5722;SDS011;2886;49.722;8.612;2023-04-06T10:20:49;10.50;;;6.57;;
5722;SDS011;2886;49.722;8.612;2023-04-06T10:23:39;11.40;;;6.80;;
5722;SDS011;2886;49.722;8.612;2023-04-06T10:26:14;12.97;;;6.57;;
5722;SDS011;2886;49.722;8.612;2023-04-06T10:28:42;10.33;;;6.40;;
5722;SDS011;2886;49.722;8.612;2023-04-06T10:31:08;10.17;;;7.03;;
5722;SDS011;2886;49.722;8.612;2023-04-06T10:33:34;12.53;;;7.03;;
5722;SDS011;2886;49.722;8.612;2023-04-06T10:36:13;11.27;;;6.70;;
5722;SDS011;2886;49.722;8.612;2023-04-06T10:38:40;15.03;;;7.33;;
5722;SDS011;2886;49.722;8.612;2023-04-06T10:41:06;11.97;;;6.90;;
5722;SDS011;2886;49.722;8.612;2023-04-06T10:43:37;11.27;;;7.07;;
5722;SDS011;2886;49.722;8.612;2023-04-06T10:46:04;20.67;;;6.80;;
5722;SDS011;2886;49.722;8.612;2023-04-06T10:48:41;15.27;;;7.20;;
5722;SDS011;2886;49.722;8.612;2023-04-06T10:51:12;9.47;;;6.33;;
5722;SDS011;2886;49.722;8.612;2023-04-06T10:53:39;11.07;;;6.93;;
5722;SDS011;2886;49.722;8.612;2023-04-06T10:56:11;11.93;;;7.20;;
5722;SDS011;2886;49.722;8.612;2023-04-06T11:01:16;11.70;;;7.20;;
5722;SDS011;2886;49.722;8.612;2023-04-06T11:03:43;10.67;;;6.70;;
5722;SDS011;2886;49.722;8.612;2023-04-06T11:06:20;8.37;;;6.23;;
5722;SDS011;2886;49.722;8.612;2023-04-06T11:08:51;15.57;;;6.37;;
5722;SDS011;2886;49.722;8.612;2023-04-06T11:11:19;12.67;;;6.83;;
5722;SDS011;2886;49.722;8.612;2023-04-06T11:13:46;10.17;;;6.83;;
5722;SDS011;2886;49.722;8.612;2023-04-06T11:16:19;10.97;;;6.07;;
5722;SDS011;2886;49.722;8.612;2023-04-06T11:21:35;11.67;;;6.33;;
5722;SDS011;2886;49.722;8.612;2023-04-06T11:24:23;13.10;;;6.60;;
5722;SDS011;2886;49.722;8.612;2023-04-06T11:26:50;10.80;;;6.43;;
5722;SDS011;2886;49.722;8.612;2023-04-06T11:29:21;10.73;;;6.50;;
5722;SDS011;2886;49.722;8.612;2023-04-06T11:31:49;12.57;;;6.57;;
5722;SDS011;2886;49.722;8.612;2023-04-06T11:34:25;10.63;;;6.53;;
5722;SDS011;2886;49.722;8.612;2023-04-06T11:36:57;8.87;;;5.90;;
5722;SDS011;2886;49.722;8.612;2023-04-06T11:39:24;13.50;;;6.07;;
5722;SDS011;2886;49.722;8.612;2023-04-06T11:42:01;13.93;;;5.80;;
5722;SDS011;2886;49.722;8.612;2023-04-06T11:44:37;12.40;;;5.50;;
5722;SDS011;2886;49.722;8.612;2023-04-06T11:47:07;8.90;;;5.60;;
5722;SDS011;2886;49.722;8.612;2023-04-06T11:49:39;8.50;;;5.40;;
5722;SDS011;2886;49.722;8.612;2023-04-06T11:52:24;10.07;;;5.97;;
5722;SDS011;2886;49.722;8.612;2023-04-06T11:54:53;12.83;;;4.97;;
5722;SDS011;2886;49.722;8.612;2023-04-06T11:57:21;10.63;;;5.10;;
5722;SDS011;2886;49.722;8.612;2023-04-06T11:59:50;7.07;;;4.90;;
5722;SDS011;2886;49.722;8.612;2023-04-06T12:02:16;6.13;;;4.17;;
5722;SDS011;2886;49.722;8.612;2023-04-06T12:04:43;8.30;;;4.63;;
5722;SDS011;2886;49.722;8.612;2023-04-06T12:07:09;8.80;;;4.63;;
5722;SDS011;2886;49.722;8.612;2023-04-06T12:09:35;9.03;;;4.90;;
5722;SDS011;2886;49.722;8.612;2023-04-06T12:12:01;7.00;;;4.93;;
5722;SDS011;2886;49.722;8.612;2023-04-06T12:14:28;7.63;;;5.10;;
5722;SDS011;2886;49.722;8.612;2023-04-06T12:16:55;8.87;;;5.40;;
5722;SDS011;2886;49.722;8.612;2023-04-06T12:19:22;10.97;;;5.10;;
5722;SDS011;2886;49.722;8.612;2023-04-06T12:21:50;7.00;;;4.50;;
5722;SDS011;2886;49.722;8.612;2023-04-06T12:24:17;7.40;;;4.70;;
5722;SDS011;2886;49.722;8.612;2023-04-06T12:26:42;6.27;;;4.43;;
5722;SDS011;2886;49.722;8.612;2023-04-06T12:29:08;7.57;;;4.90;;
5722;SDS011;2886;49.722;8.612;2023-04-06T12:31:35;8.30;;;5.33;;
5722;SDS011;2886;49.722;8.612;2023-04-06T12:34:01;6.77;;;4.80;;
5722;SDS011;2886;49.722;8.612;2023-04-06T12:36:28;6.77;;;4.80;;
5722;SDS011;2886;49.722;8.612;2023-04-06T12:38:55;9.03;;;5.67;;
5722;SDS011;2886;49.722;8.612;2023-04-06T12:41:21;8.70;;;5.30;;
5722;SDS011;2886;49.722;8.612;2023-04-06T12:43:46;10.07;;;5.77;;
5722;SDS011;2886;49.722;8.612;2023-04-06T12:46:14;8.17;;;5.60;;
5722;SDS011;2886;49.722;8.612;2023-04-06T12:48:40;8.53;;;4.90;;
5722;SDS011;2886;49.722;8.612;2023-04-06T12:51:06;11.40;;;5.77;;
5722;SDS011;2886;49.722;8.612;2023-04-06T12:53:35;7.13;;;5.43;;
5722;SDS011;2886;49.722;8.612;2023-04-06T12:56:01;9.67;;;5.70;;
5722;SDS011;2886;49.722;8.612;2023-04-06T12:58:27;8.90;;;5.83;;
5722;SDS011;2886;49.722;8.612;2023-04-06T13:00:54;8.00;;;5.50;;
5722;SDS011;2886;49.722;8.612;2023-04-06T13:03:22;8.10;;;5.73;;
5722;SDS011;2886;49.722;8.612;2023-04-06T13:05:51;8.40;;;5.40;;
5722;SDS011;2886;49.722;8.612;2023-04-06T13:08:18;10.33;;;5.80;;
5722;SDS011;2886;49.722;8.612;2023-04-06T13:13:14;7.50;;;5.63;;
5722;SDS011;2886;49.722;8.612;2023-04-06T13:15:40;11.43;;;6.63;;
5722;SDS011;2886;49.722;8.612;2023-04-06T13:18:06;17.07;;;6.20;;
5722;SDS011;2886;49.722;8.612;2023-04-06T13:20:33;9.97;;;6.20;;
5722;SDS011;2886;49.722;8.612;2023-04-06T13:22:58;8.30;;;5.63;;
5722;SDS011;2886;49.722;8.612;2023-04-06T13:25:25;8.27;;;6.00;;
5722;SDS011;2886;49.722;8.612;2023-04-06T13:27:51;10.10;;;6.03;;
5722;SDS011;2886;49.722;8.612;2023-04-06T13:30:16;8.47;;;5.80;;
5722;SDS011;2886;49.722;8.612;2023-04-06T13:32:42;10.10;;;6.37;;
5722;SDS011;2886;49.722;8.612;2023-04-06T13:35:08;9.73;;;5.70;;
5722;SDS011;2886;49.722;8.612;2023-04-06T13:37:34;10.40;;;6.27;;
5722;SDS011;2886;49.722;8.612;2023-04-06T13:40:01;10.30;;;6.10;;
5722;SDS011;2886;49.722;8.612;2023-04-06T13:42:27;10.73;;;6.23;;
5722;SDS011;2886;49.722;8.612;2023-04-06T13:44:53;8.37;;;5.70;;
5722;SDS011;2886;49.722;8.612;2023-04-06T13:47:19;10.00;;;5.90;;
5722;SDS011;2886;49.722;8.612;2023-04-06T13:49:45;11.40;;;6.03;;
5722;SDS011;2886;49.722;8.612;2023-04-06T13:52:12;9.27;;;5.93;;
5722;SDS011;2886;49.722;8.612;2023-04-06T13:54:37;11.60;;;6.87;;
5722;SDS011;2886;49.722;8.612;2023-04-06T13:57:03;10.50;;;5.83;;
5722;SDS011;2886;49.722;8.612;2023-04-06T13:59:33;11.60;;;5.73;;
5722;SDS011;2886;49.722;8.612;2023-04-06T14:02:00;10.60;;;6.33;;
5722;SDS011;2886;49.722;8.612;2023-04-06T14:04:29;8.20;;;5.13;;
5722;SDS011;2886;49.722;8.612;2023-04-06T14:06:55;12.03;;;6.33;;
5722;SDS011;2886;49.722;8.612;2023-04-06T14:09:24;9.10;;;5.40;;
5722;SDS011;2886;49.722;8.612;2023-04-06T14:11:50;11.27;;;6.53;;
5722;SDS011;2886;49.722;8.612;2023-04-06T14:14:16;11.23;;;5.63;;
5722;SDS011;2886;49.722;8.612;2023-04-06T14:16:42;8.03;;;5.10;;
5722;SDS011;2886;49.722;8.612;2023-04-06T14:19:11;11.00;;;6.10;;
5722;SDS011;2886;49.722;8.612;2023-04-06T14:21:38;13.33;;;5.50;;
5722;SDS011;2886;49.722;8.612;2023-04-06T14:24:05;10.33;;;5.90;;
5722;SDS011;2886;49.722;8.612;2023-04-06T14:26:32;13.50;;;5.83;;
5722;SDS011;2886;49.722;8.612;2023-04-06T14:29:00;11.33;;;6.00;;
5722;SDS011;2886;49.722;8.612;2023-04-06T14:31:27;15.20;;;6.23;;
5722;SDS011;2886;49.722;8.612;2023-04-06T14:33:53;7.43;;;5.63;;
5722;SDS011;2886;49.722;8.612;2023-04-06T14:36:20;10.77;;;5.53;;
5722;SDS011;2886;49.722;8.612;2023-04-06T14:38:46;10.17;;;5.67;;
5722;SDS011;2886;49.722;8.612;2023-04-06T14:41:15;9.63;;;6.17;;
5722;SDS011;2886;49.722;8.612;2023-04-06T14:43:42;9.87;;;6.10;;
5722;SDS011;2886;49.722;8.612;2023-04-06T14:46:08;12.07;;;6.03;;
5722;SDS011;2886;49.722;8.612;2023-04-06T14:48:34;10.13;;;5.80;;
5722;SDS011;2886;49.722;8.612;2023-04-06T14:51:00;10.87;;;5.90;;
5722;SDS011;2886;49.722;8.612;2023-04-06T14:53:26;14.43;;;5.60;;
5722;SDS011;2886;49.722;8.612;2023-04-06T14:55:52;11.70;;;5.80;;
5722;SDS011;2886;49.722;8.612;2023-04-06T14:58:18;9.10;;;5.10;;
5722;SDS011;2886;49.722;8.612;2023-04-06T15:00:45;10.13;;;4.67;;
5722;SDS011;2886;49.722;8.612;2023-04-06T15:03:10;7.57;;;3.97;;
5722;SDS011;2886;49.722;8.612;2023-04-06T15:05:36;5.40;;;4.00;;
5722;SDS011;2886;49.722;8.612;2023-04-06T15:08:02;7.77;;;3.80;;
5722;SDS011;2886;49.722;8.612;2023-04-06T15:10:31;6.30;;;3.80;;
5722;SDS011;2886;49.722;8.612;2023-04-06T15:12:57;6.27;;;4.03;;
5722;SDS011;2886;49.722;8.612;2023-04-06T15:15:24;11.17;;;4.93;;
5722;SDS011;2886;49.722;8.612;2023-04-06T15:17:50;6.30;;;4.80;;